Klik op de webcam foto voor een grotere versieKlik op de webcam foto voor een grotere versie
Of klik hier voor
de webcam video


Weerstation
Wilsele-Leuven:Website of another weatherstation

Weerstation
Wilsele-Putkapel:Website of another weatherstation


Nabijgelegen vliegvelden - METAR rapporten

   
EBBE - Vaartkom-Leuven
Gewijzigd: 27-11-2022 06:25
Lichte (mot)regen, Grotendeels bewolkt    Wind: Zuiden 13 km/h
Lichte (mot)regen, Grotendeels bewolkt
Wind: Wind: Zuiden 13 km/h
Temperatuur: 7°C
Voelt als: 4°C
Dauwpunt: 3°C
Vochtigheid: 76%
Barometer: 1022 hPa
Bewolking: Grotendeels bewolkt
Zicht: meer dan 10 km
Bewolking: Grotendeels bewolkt 1981.2 m,
Grotendeels bewolkt 2438.4 m
EBBE 270525Z AUTO 18007KT 9999 -DZ BKN065/// BKN080/// 07/03 Q1022 BLU
EBAW - Antwerp
Gewijzigd: 27-11-2022 06:20
Wat regen mogelijk, Gedeeltelijk bewolkt    Wind: ZZO 11 km/h
Wat regen mogelijk, Gedeeltelijk bewolkt
Wind: Wind: ZZO 11 km/h
Temperatuur: 6°C
Voelt als: 4°C
Dauwpunt: 4°C
Vochtigheid: 87%
Barometer: 1022 hPa
Bewolking: Gedeeltelijk bewolkt
Zicht: meer dan 10 km
Bewolking: Gedeeltelijk bewolkt
EBAW 270520Z 15006KT 9999 -RA NSC 06/04 Q1022 REDZ NOSIG
EBLG - Liège
Gewijzigd: 27-11-2022 06:20
Helder    Wind: Zuiden 26 km/h
Helder
Wind: Wind: Zuiden 26 km/h
Temperatuur: 7°C
Voelt als: 3°C
Dauwpunt: 2°C
Vochtigheid: 71%
Barometer: 1022 hPa
Zicht: meer dan 10 km
Bewolking: Helder
EBLG 270520Z 17014KT CAVOK 07/02 Q1022 NOSIG
EBCV - Mons/Bergen
Gewijzigd: 23-11-2022 13:55
Verouderd
Wat regen mogelijk, Bewolking    Wind: Zuiden 20 km/h
Wat regen mogelijk, Bewolking
Wind: Wind: Zuiden 20 km/h
Temperatuur: 8°C
Voelt als: 5°C
Dauwpunt: 6°C
Vochtigheid: 87%
Barometer: 995 hPa
Bewolking: Bewolking
Zicht: meer dan 10 km
Bewolking: Bewolking 426.7 m
EBCV 231255Z AUTO 19011KT 9999 -RA OVC014/// 08/06 Q0995 GRN
EHBK - Maastricht
Gewijzigd: 27-11-2022 06:25
Gedeeltelijk bewolkt    Wind: ZZW 11 km/h
Gedeeltelijk bewolkt
Wind: Wind: ZZW 11 km/h
Temperatuur: 7°C
Voelt als: 5°C
Dauwpunt: 3°C
Vochtigheid: 76%
Barometer: 1023 hPa
Bewolking: Gedeeltelijk bewolkt
Zicht: meer dan 10 km
Bewolking: Gedeeltelijk bewolkt
EHBK 270525Z AUTO 20006KT 9999 NSC 07/03 Q1023 NOSIG
ELLX - Luxemburg
Gewijzigd: 27-11-2022 06:20
Mist, Bewolking    Wind: ZZO 11 km/h
Mist, Bewolking
Wind: Wind: ZZO 11 km/h
Temperatuur: 3°C
Voelt als: 0°C
Dauwpunt: 3°C
Vochtigheid: 100%
Barometer: 1025 hPa
Bewolking: Bewolking
Zicht: 1 km
Bewolking: Bewolking 61 m
ELLX 270520Z 16006KT 0500 R24/P2000N FG VV002 03/03 Q1025 NOSIG
EBOS - Oostende
Gewijzigd: 27-11-2022 06:20
Wat regen mogelijk, Grotendeels bewolkt    Wind: Zuiden 28 km/h
Wat regen mogelijk, Grotendeels bewolkt
Wind: Wind: Zuiden 28 km/h
Temperatuur: 6°C
Voelt als: 2°C
Dauwpunt: 5°C
Vochtigheid: 93%
Barometer: 1019 hPa
Bewolking: Grotendeels bewolkt
Zicht: 8 km
Bewolking: Grotendeels bewolkt 975.4 m
EBOS 270520Z 17015KT 8000 -RA BKN032 06/05 Q1019 NOSIG
  

Script ontwikkeld door  Saratoga-weather.org Aangepast voor de template door  Weerstation Leuven

U vindt ons ook hier:

ambientweather.net/

UK Metoffice

WeatherCloud

European Weather Network

Weather Underground

Bernelux Weather Network

AWEKAS

WeatherlinkIP

Citizen Weather Observer Program (CWOP)

HAMweather, WeatherForYou, PWS Weather

Apparatuur in gebruik:

Weer-station
Davis VUE

Weer-programma
Meteobridge

Weer-computer
Nano-SD

Davis VUE

Meteobridge

Nano-SD